sensor_id;sensor_type;location;lat;lon;timestamp;pressure;altitude;pressure_sealevel;temperature;humidity
62980;BME280;49075;53.988;27.678;2023-01-01T00:00:17;981.6;;;4.2;87.7
62980;BME280;49075;53.988;27.678;2023-01-01T00:04:53;981.6;;;4.2;87.7
62980;BME280;49075;53.988;27.678;2023-01-01T00:09:53;981.5;;;4.3;87.6
62980;BME280;49075;53.988;27.678;2023-01-01T00:15:13;981.7;;;4.4;87.6
62980;BME280;49075;53.988;27.678;2023-01-01T00:19:53;981.7;;;4.4;87.6
62980;BME280;49075;53.988;27.678;2023-01-01T00:24:37;981.6;;;4.3;87.9
62980;BME280;49075;53.988;27.678;2023-01-01T00:30:06;981.6;;;4.3;88
62980;BME280;49075;53.988;27.678;2023-01-01T00:35:05;981.5;;;4.2;88.3
62980;BME280;49075;53.988;27.678;2023-01-01T00:40:13;981.3;;;4.3;88.4
62980;BME280;49075;53.988;27.678;2023-01-01T00:44:43;981.3;;;4.3;88.4
62980;BME280;49075;53.988;27.678;2023-01-01T00:50:17;981.2;;;4.3;88.7
62980;BME280;49075;53.988;27.678;2023-01-01T00:54:55;981.2;;;4.3;88.7
62980;BME280;49075;53.988;27.678;2023-01-01T01:00:14;981.2;;;4.4;88.3
62980;BME280;49075;53.988;27.678;2023-01-01T01:05:13;981.1;;;4.4;88.3
62980;BME280;49075;53.988;27.678;2023-01-01T01:10:15;981;;;4.4;88.4
62980;BME280;49075;53.988;27.678;2023-01-01T01:14:55;981;;;4.4;88.4
62980;BME280;49075;53.988;27.678;2023-01-01T01:19:55;980.9;;;4.4;88.3
62980;BME280;49075;53.988;27.678;2023-01-01T01:24:57;980.8;;;4.6;87.8
62980;BME280;49075;53.988;27.678;2023-01-01T01:30:15;980.9;;;4.7;88.1
62980;BME280;49075;53.988;27.678;2023-01-01T01:34:43;980.9;;;4.7;88.1
62980;BME280;49075;53.988;27.678;2023-01-01T01:40:02;980.9;;;4.9;87.6
62980;BME280;49075;53.988;27.678;2023-01-01T01:45:14;980.9;;;4.8;87.2
62980;BME280;49075;53.988;27.678;2023-01-01T01:49:37;980.9;;;4.8;87.2
62980;BME280;49075;53.988;27.678;2023-01-01T01:55:13;980.9;;;4.8;87.2
62980;BME280;49075;53.988;27.678;2023-01-01T01:59:54;980.9;;;4.8;87.2
62980;BME280;49075;53.988;27.678;2023-01-01T02:04:55;980.9;;;4.8;87.1
62980;BME280;49075;53.988;27.678;2023-01-01T02:09:53;980.9;;;4.8;87.6
62980;BME280;49075;53.988;27.678;2023-01-01T02:14:57;980.8;;;4.7;88
62980;BME280;49075;53.988;27.678;2023-01-01T02:20:09;980.7;;;4.7;88.4
62980;BME280;49075;53.988;27.678;2023-01-01T02:24:47;980.7;;;4.8;88.2
62980;BME280;49075;53.988;27.678;2023-01-01T02:30:09;980.8;;;4.9;87.7
62980;BME280;49075;53.988;27.678;2023-01-01T02:34:46;980.7;;;5;87.3
62980;BME280;49075;53.988;27.678;2023-01-01T02:39:49;980.6;;;4.9;87.6
62980;BME280;49075;53.988;27.678;2023-01-01T02:45:20;980.7;;;4.8;88
62980;BME280;49075;53.988;27.678;2023-01-01T02:49:57;980.7;;;4.8;88
62980;BME280;49075;53.988;27.678;2023-01-01T02:54:58;980.8;;;4.9;87.7
62980;BME280;49075;53.988;27.678;2023-01-01T02:59:43;980.7;;;5;87.8
62980;BME280;49075;53.988;27.678;2023-01-01T03:05:11;980.7;;;5;87.7
62980;BME280;49075;53.988;27.678;2023-01-01T03:10:20;980.7;;;5.1;87.6
62980;BME280;49075;53.988;27.678;2023-01-01T03:14:49;980.7;;;5.1;87.6
62980;BME280;49075;53.988;27.678;2023-01-01T03:20:11;980.6;;;5.1;87.5
62980;BME280;49075;53.988;27.678;2023-01-01T03:25:00;980.5;;;4.8;88.8
62980;BME280;49075;53.988;27.678;2023-01-01T03:29:48;980.4;;;4.9;88.6
62980;BME280;49075;53.988;27.678;2023-01-01T03:35:21;980.6;;;5.1;87.9
62980;BME280;49075;53.988;27.678;2023-01-01T03:39:57;980.6;;;5.1;87.9
62980;BME280;49075;53.988;27.678;2023-01-01T03:44:46;980.6;;;5;88.1
62980;BME280;49075;53.988;27.678;2023-01-01T03:50:09;980.5;;;5.1;87.8
62980;BME280;49075;53.988;27.678;2023-01-01T03:54:51;980.6;;;5.1;87.8
62980;BME280;49075;53.988;27.678;2023-01-01T04:00:20;980.4;;;5;87.9
62980;BME280;49075;53.988;27.678;2023-01-01T04:04:47;980.4;;;5;87.9
62980;BME280;49075;53.988;27.678;2023-01-01T04:10:09;980.4;;;5;87.8
62980;BME280;49075;53.988;27.678;2023-01-01T04:15:11;980.4;;;5.1;87.6
62980;BME280;49075;53.988;27.678;2023-01-01T04:19:57;980.4;;;5.1;87.6
62980;BME280;49075;53.988;27.678;2023-01-01T04:25:21;980.3;;;5.2;87.5
62980;BME280;49075;53.988;27.678;2023-01-01T04:29:57;980.3;;;5.2;87.5
62980;BME280;49075;53.988;27.678;2023-01-01T04:34:59;980.3;;;5.1;87.6
62980;BME280;49075;53.988;27.678;2023-01-01T04:39:38;980.2;;;5.1;87.9
62980;BME280;49075;53.988;27.678;2023-01-01T04:45:11;980;;;5.3;87.1
62980;BME280;49075;53.988;27.678;2023-01-01T04:50:21;980;;;5.1;87.6
62980;BME280;49075;53.988;27.678;2023-01-01T04:54:49;980;;;5.1;87.6
62980;BME280;49075;53.988;27.678;2023-01-01T05:00:10;980.1;;;5.3;87
62980;BME280;49075;53.988;27.678;2023-01-01T05:05:21;980.2;;;5.2;87.5
62980;BME280;49075;53.988;27.678;2023-01-01T05:10:19;980.1;;;5.3;87.3
62980;BME280;49075;53.988;27.678;2023-01-01T05:15:17;980.1;;;5.3;87.3
62980;BME280;49075;53.988;27.678;2023-01-01T05:19:47;980.1;;;5.3;87.3
62980;BME280;49075;53.988;27.678;2023-01-01T05:24:59;980.1;;;5.2;87.6
62980;BME280;49075;53.988;27.678;2023-01-01T05:29:59;980;;;5.2;87.7
62980;BME280;49075;53.988;27.678;2023-01-01T05:35:11;980;;;5.3;88
62980;BME280;49075;53.988;27.678;2023-01-01T05:40:16;979.9;;;5.4;87.8
62980;BME280;49075;53.988;27.678;2023-01-01T05:44:55;979.9;;;5.4;87.8
62980;BME280;49075;53.988;27.678;2023-01-01T05:50:08;979.9;;;5.6;87.2
62980;BME280;49075;53.988;27.678;2023-01-01T05:55:07;979.9;;;5.6;87.3
62980;BME280;49075;53.988;27.678;2023-01-01T05:59:47;979.8;;;5.6;87.2
62980;BME280;49075;53.988;27.678;2023-01-01T06:05:15;979.9;;;5.7;87.2
62980;BME280;49075;53.988;27.678;2023-01-01T06:09:59;979.9;;;5.7;87.2
62980;BME280;49075;53.988;27.678;2023-01-01T06:14:57;979.8;;;5.7;87.2
62980;BME280;49075;53.988;27.678;2023-01-01T06:19:49;979.8;;;5.6;87.1
62980;BME280;49075;53.988;27.678;2023-01-01T06:25:10;979.8;;;5.6;87.3
62980;BME280;49075;53.988;27.678;2023-01-01T06:30:19;979.9;;;5.5;87.6
62980;BME280;49075;53.988;27.678;2023-01-01T06:34:37;979.9;;;5.5;87.6
62980;BME280;49075;53.988;27.678;2023-01-01T06:40:17;979.9;;;5.5;87.4
62980;BME280;49075;53.988;27.678;2023-01-01T06:45:12;979.8;;;5.6;87.2
62980;BME280;49075;53.988;27.678;2023-01-01T06:49:37;979.8;;;5.6;87.2
62980;BME280;49075;53.988;27.678;2023-01-01T06:55:17;979.9;;;5.5;87.4
62980;BME280;49075;53.988;27.678;2023-01-01T06:59:57;979.9;;;5.5;87.4
62980;BME280;49075;53.988;27.678;2023-01-01T07:04:47;980;;;5.5;87.5
62980;BME280;49075;53.988;27.678;2023-01-01T07:30:22;980.1;;;5.8;85.3
62980;BME280;49075;53.988;27.678;2023-01-01T07:35:09;980.1;;;5.8;85.3
62980;BME280;49075;53.988;27.678;2023-01-01T08:10:16;980.5;;;7;82.2
62980;BME280;49075;53.988;27.678;2023-01-01T08:14:37;980.5;;;7;82.2
62980;BME280;49075;53.988;27.678;2023-01-01T08:20:08;980.5;;;7.6;79.6
62980;BME280;49075;53.988;27.678;2023-01-01T08:25:09;980.5;;;8.1;78.9
62980;BME280;49075;53.988;27.678;2023-01-01T08:29:48;980.5;;;8.9;76.4
62980;BME280;49075;53.988;27.678;2023-01-01T08:35:18;980.6;;;7.9;77.9
62980;BME280;49075;53.988;27.678;2023-01-01T08:39:58;980.6;;;7.9;77.9
62980;BME280;49075;53.988;27.678;2023-01-01T08:44:58;980.7;;;7.5;78.6
62980;BME280;49075;53.988;27.678;2023-01-01T08:50:18;980.8;;;7.2;79.2
62980;BME280;49075;53.988;27.678;2023-01-01T08:55:10;980.8;;;7.2;79.2
62980;BME280;49075;53.988;27.678;2023-01-01T09:00:20;980.8;;;7;79.6
62980;BME280;49075;53.988;27.678;2023-01-01T09:04:48;980.8;;;7;79.6
62980;BME280;49075;53.988;27.678;2023-01-01T09:10:16;980.7;;;6.8;80.4
62980;BME280;49075;53.988;27.678;2023-01-01T09:14:58;980.7;;;6.8;80.4
62980;BME280;49075;53.988;27.678;2023-01-01T09:19:46;980.7;;;6.9;80.4
62980;BME280;49075;53.988;27.678;2023-01-01T09:25:16;980.7;;;7.3;79.5
62980;BME280;49075;53.988;27.678;2023-01-01T09:29:56;980.7;;;7.3;79.5
62980;BME280;49075;53.988;27.678;2023-01-01T09:34:46;980.6;;;7.3;79
62980;BME280;49075;53.988;27.678;2023-01-01T09:39:46;980.5;;;8.4;77.2
62980;BME280;49075;53.988;27.678;2023-01-01T09:45:12;980.5;;;9.8;72.7
62980;BME280;49075;53.988;27.678;2023-01-01T09:50:19;980.4;;;12.4;64.8
62980;BME280;49075;53.988;27.678;2023-01-01T09:54:49;980.4;;;12.4;64.8
62980;BME280;49075;53.988;27.678;2023-01-01T10:00:13;980.5;;;12.8;65.7
62980;BME280;49075;53.988;27.678;2023-01-01T10:05:12;980.7;;;11.8;66.4
62980;BME280;49075;53.988;27.678;2023-01-01T10:10:21;980.8;;;9.9;69.7
62980;BME280;49075;53.988;27.678;2023-01-01T10:15:17;980.9;;;9.5;71.7
62980;BME280;49075;53.988;27.678;2023-01-01T10:19:59;980.9;;;9.5;71.7
62980;BME280;49075;53.988;27.678;2023-01-01T10:24:58;980.9;;;9.2;71.9
62980;BME280;49075;53.988;27.678;2023-01-01T10:29:39;980.9;;;8.9;73
62980;BME280;49075;53.988;27.678;2023-01-01T10:35:11;981;;;8.8;73.3
62980;BME280;49075;53.988;27.678;2023-01-01T10:40:18;980.9;;;8.8;73.7
62980;BME280;49075;53.988;27.678;2023-01-01T10:44:38;980.9;;;8.8;73.7
62980;BME280;49075;53.988;27.678;2023-01-01T10:50:06;980.9;;;8.7;74.1
62980;BME280;49075;53.988;27.678;2023-01-01T10:55:17;980.9;;;8.7;74.2
62980;BME280;49075;53.988;27.678;2023-01-01T10:59:48;981;;;8.6;74.7
62980;BME280;49075;53.988;27.678;2023-01-01T11:05:20;981;;;8.6;74.9
62980;BME280;49075;53.988;27.678;2023-01-01T11:10:00;981;;;8.6;74.9
62980;BME280;49075;53.988;27.678;2023-01-01T11:14:58;981;;;8.5;75.2
62980;BME280;49075;53.988;27.678;2023-01-01T11:19:58;981.1;;;8.5;75.1
62980;BME280;49075;53.988;27.678;2023-01-01T11:25:16;981.2;;;8.7;74.5
62980;BME280;49075;53.988;27.678;2023-01-01T11:30:23;981.2;;;9.3;73.1
62980;BME280;49075;53.988;27.678;2023-01-01T11:34:38;981.2;;;9.3;73.1
62980;BME280;49075;53.988;27.678;2023-01-01T11:40:14;981.1;;;10.3;71.5
62980;BME280;49075;53.988;27.678;2023-01-01T11:44:47;981.1;;;10.8;70.3
62980;BME280;49075;53.988;27.678;2023-01-01T11:50:19;981.1;;;10.6;69.5
62980;BME280;49075;53.988;27.678;2023-01-01T11:55:19;981.1;;;11.7;67.5
62980;BME280;49075;53.988;27.678;2023-01-01T11:59:40;981.1;;;11.7;67.5
62980;BME280;49075;53.988;27.678;2023-01-01T12:05:07;981.1;;;12.6;64.7
62980;BME280;49075;53.988;27.678;2023-01-01T12:09:45;981.1;;;13.7;61.7
62980;BME280;49075;53.988;27.678;2023-01-01T12:15:13;981.2;;;12.7;62.4
62980;BME280;49075;53.988;27.678;2023-01-01T12:20:20;981.1;;;11.5;63.1
62980;BME280;49075;53.988;27.678;2023-01-01T12:24:38;981.1;;;11.5;63.1
62980;BME280;49075;53.988;27.678;2023-01-01T12:35:01;981.1;;;11.5;63.1
62980;BME280;49075;53.988;27.678;2023-01-01T12:40:23;981.2;;;9.8;68.7
62980;BME280;49075;53.988;27.678;2023-01-01T12:44:51;981.1;;;9.4;69.9
62980;BME280;49075;53.988;27.678;2023-01-01T12:49:51;981.1;;;9;71
62980;BME280;49075;53.988;27.678;2023-01-01T12:55:24;981.2;;;8.3;73.1
62980;BME280;49075;53.988;27.678;2023-01-01T12:59:41;981.2;;;8.3;73.1
62980;BME280;49075;53.988;27.678;2023-01-01T13:05:03;981.2;;;8;73.9
62980;BME280;49075;53.988;27.678;2023-01-01T13:14:52;981.5;;;7.8;75
62980;BME280;49075;53.988;27.678;2023-01-01T13:20:21;981.6;;;7.8;75.4
62980;BME280;49075;53.988;27.678;2023-01-01T13:25:18;981.6;;;7.8;75.4
62980;BME280;49075;53.988;27.678;2023-01-01T13:30:41;981.6;;;7.6;75.9
62980;BME280;49075;53.988;27.678;2023-01-01T13:34:59;981.6;;;7.6;75.9
62980;BME280;49075;53.988;27.678;2023-01-01T13:49:55;981.6;;;7.7;75.6
62980;BME280;49075;53.988;27.678;2023-01-01T13:55:44;981.6;;;7.9;75.1
62980;BME280;49075;53.988;27.678;2023-01-01T14:00:03;981.7;;;8.2;74.5
62980;BME280;49075;53.988;27.678;2023-01-01T14:14:50;981.7;;;8.2;74.5
62980;BME280;49075;53.988;27.678;2023-01-01T14:20:13;982.1;;;8.2;74
62980;BME280;49075;53.988;27.678;2023-01-01T14:25:02;982;;;8.4;73.5
62980;BME280;49075;53.988;27.678;2023-01-01T14:30:00;982;;;8.3;73.2
62980;BME280;49075;53.988;27.678;2023-01-01T14:35:22;982.1;;;8.4;73.1
62980;BME280;49075;53.988;27.678;2023-01-01T14:39:40;982.1;;;8.4;73.1
62980;BME280;49075;53.988;27.678;2023-01-01T14:44:47;982.1;;;8.3;73.2
62980;BME280;49075;53.988;27.678;2023-01-01T14:50:01;982.1;;;8.4;73
62980;BME280;49075;53.988;27.678;2023-01-01T14:55:02;982.2;;;8.4;72.8
62980;BME280;49075;53.988;27.678;2023-01-01T15:00:24;982.1;;;8.4;72.9
62980;BME280;49075;53.988;27.678;2023-01-01T15:05:17;982.1;;;8.3;73.2
62980;BME280;49075;53.988;27.678;2023-01-01T15:10:14;982;;;8.3;72.8
62980;BME280;49075;53.988;27.678;2023-01-01T15:15:00;982;;;8.3;72.8
62980;BME280;49075;53.988;27.678;2023-01-01T15:19:40;981.9;;;8.1;73.5
62980;BME280;49075;53.988;27.678;2023-01-01T15:25:22;981.9;;;8;73.9
62980;BME280;49075;53.988;27.678;2023-01-01T15:29:50;981.9;;;8;73.9
62980;BME280;49075;53.988;27.678;2023-01-01T15:35:00;982;;;8;73.9
62980;BME280;49075;53.988;27.678;2023-01-01T15:40:28;982.2;;;7.9;74
62980;BME280;49075;53.988;27.678;2023-01-01T15:44:50;982.2;;;7.9;74
62980;BME280;49075;53.988;27.678;2023-01-01T15:50:21;982.2;;;7.9;74.3
62980;BME280;49075;53.988;27.678;2023-01-01T15:55:12;982.2;;;7.9;74.3
62980;BME280;49075;53.988;27.678;2023-01-01T16:00:16;982.1;;;7.8;74.6
62980;BME280;49075;53.988;27.678;2023-01-01T16:05:00;982.1;;;7.8;74.6
62980;BME280;49075;53.988;27.678;2023-01-01T16:10:00;982.1;;;7.6;74.6
62980;BME280;49075;53.988;27.678;2023-01-01T16:15:24;982.1;;;7.9;74.2
62980;BME280;49075;53.988;27.678;2023-01-01T16:19:50;982.1;;;7.9;74.2
62980;BME280;49075;53.988;27.678;2023-01-01T16:25:00;982.3;;;8.1;73.7
62980;BME280;49075;53.988;27.678;2023-01-01T16:30:12;982.2;;;8;73.6
62980;BME280;49075;53.988;27.678;2023-01-01T17:00:00;982.3;;;7.8;73.9
62980;BME280;49075;53.988;27.678;2023-01-01T17:05:24;982.3;;;7.6;74.2
62980;BME280;49075;53.988;27.678;2023-01-01T17:09:50;982.3;;;7.6;74.2
62980;BME280;49075;53.988;27.678;2023-01-01T17:15:00;982.4;;;7.6;74
62980;BME280;49075;53.988;27.678;2023-01-01T17:20:00;982.5;;;7.5;74.4
62980;BME280;49075;53.988;27.678;2023-01-01T17:25:00;982.5;;;7.5;74.5
62980;BME280;49075;53.988;27.678;2023-01-01T17:30:24;982.4;;;7.4;74.7
62980;BME280;49075;53.988;27.678;2023-01-01T17:34:52;982.4;;;7.4;74.7
62980;BME280;49075;53.988;27.678;2023-01-01T17:40:02;982.5;;;7.4;74.7
62980;BME280;49075;53.988;27.678;2023-01-01T17:44:40;982.4;;;7.4;74.7
62980;BME280;49075;53.988;27.678;2023-01-01T17:50:00;982.4;;;7.4;74.6
62980;BME280;49075;53.988;27.678;2023-01-01T17:55:24;982.4;;;7.3;74.5
62980;BME280;49075;53.988;27.678;2023-01-01T18:00:00;982.4;;;7.3;74.5
62980;BME280;49075;53.988;27.678;2023-01-01T18:05:00;982.6;;;7.3;74.6
62980;BME280;49075;53.988;27.678;2023-01-01T18:09:40;982.8;;;7.3;74.6
62980;BME280;49075;53.988;27.678;2023-01-01T18:14:38;982.9;;;7.4;74.3
62980;BME280;49075;53.988;27.678;2023-01-01T18:20:24;983.1;;;7.5;73.9
62980;BME280;49075;53.988;27.678;2023-01-01T18:25:14;983.1;;;7.4;73.9
62980;BME280;49075;53.988;27.678;2023-01-01T18:30:02;983.1;;;7.4;73.9
62980;BME280;49075;53.988;27.678;2023-01-01T18:34:50;983.1;;;7.5;73.6
62980;BME280;49075;53.988;27.678;2023-01-01T18:39:40;983.2;;;7.7;73.2
62980;BME280;49075;53.988;27.678;2023-01-01T18:45:20;983.1;;;7.8;72.6
62980;BME280;49075;53.988;27.678;2023-01-01T18:49:42;983.1;;;7.8;72.6
62980;BME280;49075;53.988;27.678;2023-01-01T18:54:40;983.1;;;7.8;72.2
62980;BME280;49075;53.988;27.678;2023-01-01T18:59:40;983.2;;;8;72.2
62980;BME280;49075;53.988;27.678;2023-01-01T19:04:40;983.1;;;7.9;71.8
62980;BME280;49075;53.988;27.678;2023-01-01T19:10:22;983;;;7.8;71.6
62980;BME280;49075;53.988;27.678;2023-01-01T19:15:08;983;;;7.8;71.6
62980;BME280;49075;53.988;27.678;2023-01-01T19:20:13;983.3;;;7.8;71.7
62980;BME280;49075;53.988;27.678;2023-01-01T19:24:50;983.3;;;7.8;71.7
62980;BME280;49075;53.988;27.678;2023-01-01T19:30:24;983.4;;;7.8;71.7
62980;BME280;49075;53.988;27.678;2023-01-01T19:35:24;983.6;;;7.7;72.2
62980;BME280;49075;53.988;27.678;2023-01-01T19:39:52;983.6;;;7.7;72.2
62980;BME280;49075;53.988;27.678;2023-01-01T19:45:00;983.6;;;7.7;72
62980;BME280;49075;53.988;27.678;2023-01-01T19:49:50;983.7;;;7.6;72.1
62980;BME280;49075;53.988;27.678;2023-01-01T19:54:50;983.8;;;7.5;72.2
62980;BME280;49075;53.988;27.678;2023-01-01T20:00:10;983.9;;;7.7;72
62980;BME280;49075;53.988;27.678;2023-01-01T20:05:02;983.9;;;7.7;72.2
62980;BME280;49075;53.988;27.678;2023-01-01T20:10:12;984.2;;;7.8;71.9
62980;BME280;49075;53.988;27.678;2023-01-01T20:14:58;984.2;;;7.8;71.9
62980;BME280;49075;53.988;27.678;2023-01-01T20:20:22;984.5;;;8;71.7
62980;BME280;49075;53.988;27.678;2023-01-01T20:25:24;984.6;;;8.1;71.7
62980;BME280;49075;53.988;27.678;2023-01-01T20:29:50;984.6;;;8.1;71.7
62980;BME280;49075;53.988;27.678;2023-01-01T20:34:48;984.6;;;8.1;71.5
62980;BME280;49075;53.988;27.678;2023-01-01T20:40:00;984.8;;;8.2;71.2
62980;BME280;49075;53.988;27.678;2023-01-01T20:44:50;984.8;;;8.2;71.1
62980;BME280;49075;53.988;27.678;2023-01-01T20:50:10;984.7;;;8.3;70.9
62980;BME280;49075;53.988;27.678;2023-01-01T20:55:12;985;;;8.2;70.9
62980;BME280;49075;53.988;27.678;2023-01-01T21:00:22;985.1;;;8.1;71.2
62980;BME280;49075;53.988;27.678;2023-01-01T21:05:00;985.1;;;8.1;71.2
62980;BME280;49075;53.988;27.678;2023-01-01T21:10:14;985.3;;;8;71.2
62980;BME280;49075;53.988;27.678;2023-01-01T21:15:24;985.3;;;8;71.4
62980;BME280;49075;53.988;27.678;2023-01-01T21:19:40;985.3;;;8;71.4
62980;BME280;49075;53.988;27.678;2023-01-01T21:25:00;985.4;;;7.8;71.5
62980;BME280;49075;53.988;27.678;2023-01-01T21:30:20;985.7;;;7.7;72
62980;BME280;49075;53.988;27.678;2023-01-01T21:35:25;985.8;;;7.7;72
62980;BME280;49075;53.988;27.678;2023-01-01T21:40:53;985.8;;;7.7;72
62980;BME280;49075;53.988;27.678;2023-01-01T21:45:15;985.8;;;7.6;72.3
62980;BME280;49075;53.988;27.678;2023-01-01T21:50:04;985.8;;;7.6;72.3
62980;BME280;49075;53.988;27.678;2023-01-01T21:54:40;985.8;;;7.5;72.4
62980;BME280;49075;53.988;27.678;2023-01-01T22:00:17;985.7;;;7.4;72.9
62980;BME280;49075;53.988;27.678;2023-01-01T22:05:29;985.7;;;7.3;73.2
62980;BME280;49075;53.988;27.678;2023-01-01T22:10:21;985.8;;;7.1;73.5
62980;BME280;49075;53.988;27.678;2023-01-01T22:15:05;985.8;;;7.1;73.5
62980;BME280;49075;53.988;27.678;2023-01-01T22:20:20;985.9;;;7;73.5
62980;BME280;49075;53.988;27.678;2023-01-01T22:25:25;986;;;6.9;73.7
62980;BME280;49075;53.988;27.678;2023-01-01T22:30:25;986;;;6.9;73.6
62980;BME280;49075;53.988;27.678;2023-01-01T22:35:13;986.1;;;6.9;73.6
62980;BME280;49075;53.988;27.678;2023-01-01T22:39:50;986.1;;;6.9;73.6
62980;BME280;49075;53.988;27.678;2023-01-01T22:44:53;986;;;6.8;73.8
62980;BME280;49075;53.988;27.678;2023-01-01T22:50:14;986.1;;;6.8;73.4
62980;BME280;49075;53.988;27.678;2023-01-01T22:55:18;986.1;;;6.7;73.5
62980;BME280;49075;53.988;27.678;2023-01-01T22:59:40;986.1;;;6.7;73.5
62980;BME280;49075;53.988;27.678;2023-01-01T23:05:08;986.2;;;6.7;73.2
62980;BME280;49075;53.988;27.678;2023-01-01T23:10:14;986.4;;;6.7;73.5
62980;BME280;49075;53.988;27.678;2023-01-01T23:15:18;986.4;;;6.7;73.3
62980;BME280;49075;53.988;27.678;2023-01-01T23:20:08;986.4;;;6.7;73.3
62980;BME280;49075;53.988;27.678;2023-01-01T23:25:11;986.4;;;6.6;73
62980;BME280;49075;53.988;27.678;2023-01-01T23:29:48;986.5;;;6.5;72.7
62980;BME280;49075;53.988;27.678;2023-01-01T23:34:40;986.5;;;6.6;72
62980;BME280;49075;53.988;27.678;2023-01-01T23:40:08;986.6;;;6.5;71.7
62980;BME280;49075;53.988;27.678;2023-01-01T23:45:18;986.7;;;6.4;71.6
62980;BME280;49075;53.988;27.678;2023-01-01T23:49:56;986.7;;;6.4;71.6
62980;BME280;49075;53.988;27.678;2023-01-01T23:54:56;986.9;;;6.4;71.8
